sensor_id;sensor_type;location;lat;lon;timestamp;P1;durP1;ratioP1;P2;durP2;ratioP2
20375;SDS011;10347;51.828;6.466;2023-02-11T00:01:46;31.48;;;16.85;;
20375;SDS011;10347;51.828;6.466;2023-02-11T00:04:12;33.00;;;17.10;;
20375;SDS011;10347;51.828;6.466;2023-02-11T00:06:38;36.10;;;18.08;;
20375;SDS011;10347;51.828;6.466;2023-02-11T00:09:04;36.95;;;18.10;;
20375;SDS011;10347;51.828;6.466;2023-02-11T00:11:30;31.30;;;16.13;;
20375;SDS011;10347;51.828;6.466;2023-02-11T00:13:58;31.75;;;17.48;;
20375;SDS011;10347;51.828;6.466;2023-02-11T00:16:27;32.75;;;17.42;;
20375;SDS011;10347;51.828;6.466;2023-02-11T00:18:53;36.20;;;18.17;;
20375;SDS011;10347;51.828;6.466;2023-02-11T00:21:20;32.75;;;18.33;;
20375;SDS011;10347;51.828;6.466;2023-02-11T00:23:47;30.88;;;16.20;;
20375;SDS011;10347;51.828;6.466;2023-02-11T00:28:43;28.00;;;15.10;;
20375;SDS011;10347;51.828;6.466;2023-02-11T00:31:10;35.03;;;17.50;;
20375;SDS011;10347;51.828;6.466;2023-02-11T00:33:37;32.15;;;16.67;;
20375;SDS011;10347;51.828;6.466;2023-02-11T00:36:14;32.63;;;16.48;;
20375;SDS011;10347;51.828;6.466;2023-02-11T00:38:42;29.85;;;16.65;;
20375;SDS011;10347;51.828;6.466;2023-02-11T00:41:09;33.85;;;17.30;;
20375;SDS011;10347;51.828;6.466;2023-02-11T00:43:35;33.25;;;16.48;;
20375;SDS011;10347;51.828;6.466;2023-02-11T00:46:01;27.38;;;15.95;;
20375;SDS011;10347;51.828;6.466;2023-02-11T00:48:26;30.42;;;17.17;;
20375;SDS011;10347;51.828;6.466;2023-02-11T00:50:52;32.03;;;15.68;;
20375;SDS011;10347;51.828;6.466;2023-02-11T00:53:17;28.30;;;15.32;;
20375;SDS011;10347;51.828;6.466;2023-02-11T00:55:43;25.50;;;15.30;;
20375;SDS011;10347;51.828;6.466;2023-02-11T00:58:09;31.90;;;16.60;;
20375;SDS011;10347;51.828;6.466;2023-02-11T01:00:34;28.42;;;15.73;;
20375;SDS011;10347;51.828;6.466;2023-02-11T01:03:00;29.08;;;15.68;;
20375;SDS011;10347;51.828;6.466;2023-02-11T01:05:25;23.15;;;13.00;;
20375;SDS011;10347;51.828;6.466;2023-02-11T01:07:51;26.55;;;13.40;;
20375;SDS011;10347;51.828;6.466;2023-02-11T01:10:17;28.65;;;13.50;;
20375;SDS011;10347;51.828;6.466;2023-02-11T01:12:42;24.35;;;14.80;;
20375;SDS011;10347;51.828;6.466;2023-02-11T01:15:10;24.00;;;12.50;;
20375;SDS011;10347;51.828;6.466;2023-02-11T01:17:37;25.63;;;13.45;;
20375;SDS011;10347;51.828;6.466;2023-02-11T01:20:03;26.35;;;12.68;;
20375;SDS011;10347;51.828;6.466;2023-02-11T01:22:30;26.90;;;13.35;;
20375;SDS011;10347;51.828;6.466;2023-02-11T01:24:56;26.42;;;13.10;;
20375;SDS011;10347;51.828;6.466;2023-02-11T01:27:21;28.52;;;13.63;;
20375;SDS011;10347;51.828;6.466;2023-02-11T01:29:47;23.10;;;12.00;;
20375;SDS011;10347;51.828;6.466;2023-02-11T01:32:12;20.67;;;11.88;;
20375;SDS011;10347;51.828;6.466;2023-02-11T01:34:38;21.58;;;13.02;;
20375;SDS011;10347;51.828;6.466;2023-02-11T01:37:03;21.20;;;12.02;;
20375;SDS011;10347;51.828;6.466;2023-02-11T01:39:31;26.10;;;12.10;;
20375;SDS011;10347;51.828;6.466;2023-02-11T01:41:58;25.98;;;13.27;;
20375;SDS011;10347;51.828;6.466;2023-02-11T01:44:25;19.85;;;11.52;;
20375;SDS011;10347;51.828;6.466;2023-02-11T01:46:56;20.23;;;10.55;;
20375;SDS011;10347;51.828;6.466;2023-02-11T01:49:24;18.25;;;10.52;;
20375;SDS011;10347;51.828;6.466;2023-02-11T01:51:57;21.70;;;10.20;;
20375;SDS011;10347;51.828;6.466;2023-02-11T01:54:25;19.00;;;10.75;;
20375;SDS011;10347;51.828;6.466;2023-02-11T01:57:14;21.13;;;10.90;;
20375;SDS011;10347;51.828;6.466;2023-02-11T01:59:54;22.38;;;10.27;;
20375;SDS011;10347;51.828;6.466;2023-02-11T02:08:02;18.83;;;9.82;;
20375;SDS011;10347;51.828;6.466;2023-02-11T02:10:44;14.85;;;8.65;;
20375;SDS011;10347;51.828;6.466;2023-02-11T02:13:12;18.58;;;9.52;;
20375;SDS011;10347;51.828;6.466;2023-02-11T02:16:00;21.88;;;10.65;;
20375;SDS011;10347;51.828;6.466;2023-02-11T02:29:21;21.25;;;10.05;;
20375;SDS011;10347;51.828;6.466;2023-02-11T02:32:29;21.45;;;10.15;;
20375;SDS011;10347;51.828;6.466;2023-02-11T02:35:00;21.25;;;9.70;;
20375;SDS011;10347;51.828;6.466;2023-02-11T02:40:11;17.75;;;8.68;;
20375;SDS011;10347;51.828;6.466;2023-02-11T02:42:47;15.30;;;8.23;;
20375;SDS011;10347;51.828;6.466;2023-02-11T02:45:14;22.20;;;9.55;;
20375;SDS011;10347;51.828;6.466;2023-02-11T02:47:40;17.88;;;8.90;;
20375;SDS011;10347;51.828;6.466;2023-02-11T02:50:05;16.33;;;8.15;;
20375;SDS011;10347;51.828;6.466;2023-02-11T02:53:22;22.17;;;8.88;;
20375;SDS011;10347;51.828;6.466;2023-02-11T02:55:30;13.00;;;8.18;;
20375;SDS011;10347;51.828;6.466;2023-02-11T03:00:45;14.52;;;8.43;;
20375;SDS011;10347;51.828;6.466;2023-02-11T03:03:33;17.38;;;8.85;;
20375;SDS011;10347;51.828;6.466;2023-02-11T03:06:01;13.55;;;8.52;;
20375;SDS011;10347;51.828;6.466;2023-02-11T03:08:35;14.38;;;7.80;;
20375;SDS011;10347;51.828;6.466;2023-02-11T03:11:08;14.95;;;8.13;;
20375;SDS011;10347;51.828;6.466;2023-02-11T03:13:36;14.18;;;7.45;;
20375;SDS011;10347;51.828;6.466;2023-02-11T03:16:08;12.90;;;7.50;;
20375;SDS011;10347;51.828;6.466;2023-02-11T03:18:38;19.20;;;8.35;;
20375;SDS011;10347;51.828;6.466;2023-02-11T03:21:07;14.52;;;8.52;;
20375;SDS011;10347;51.828;6.466;2023-02-11T03:23:43;16.33;;;7.65;;
20375;SDS011;10347;51.828;6.466;2023-02-11T03:26:37;17.20;;;8.60;;
20375;SDS011;10347;51.828;6.466;2023-02-11T03:29:19;18.10;;;8.40;;
20375;SDS011;10347;51.828;6.466;2023-02-11T03:31:53;18.45;;;8.85;;
20375;SDS011;10347;51.828;6.466;2023-02-11T03:34:26;16.13;;;8.68;;
20375;SDS011;10347;51.828;6.466;2023-02-11T03:37:01;17.30;;;8.73;;
20375;SDS011;10347;51.828;6.466;2023-02-11T03:39:34;16.38;;;8.27;;
20375;SDS011;10347;51.828;6.466;2023-02-11T03:42:05;18.52;;;9.38;;
20375;SDS011;10347;51.828;6.466;2023-02-11T03:44:35;17.65;;;8.10;;
20375;SDS011;10347;51.828;6.466;2023-02-11T03:47:06;14.75;;;8.57;;
20375;SDS011;10347;51.828;6.466;2023-02-11T03:49:34;17.23;;;8.90;;
20375;SDS011;10347;51.828;6.466;2023-02-11T03:52:03;17.90;;;9.98;;
20375;SDS011;10347;51.828;6.466;2023-02-11T03:54:31;17.88;;;8.85;;
20375;SDS011;10347;51.828;6.466;2023-02-11T03:56:58;25.80;;;10.05;;
20375;SDS011;10347;51.828;6.466;2023-02-11T03:59:25;14.52;;;7.88;;
20375;SDS011;10347;51.828;6.466;2023-02-11T04:01:51;17.02;;;9.63;;
20375;SDS011;10347;51.828;6.466;2023-02-11T04:04:16;18.27;;;9.85;;
20375;SDS011;10347;51.828;6.466;2023-02-11T04:06:42;17.50;;;8.75;;
20375;SDS011;10347;51.828;6.466;2023-02-11T04:09:08;16.17;;;9.43;;
20375;SDS011;10347;51.828;6.466;2023-02-11T04:11:35;16.90;;;8.68;;
20375;SDS011;10347;51.828;6.466;2023-02-11T04:14:00;19.75;;;8.65;;
20375;SDS011;10347;51.828;6.466;2023-02-11T04:16:26;19.33;;;9.35;;
20375;SDS011;10347;51.828;6.466;2023-02-11T04:18:52;24.17;;;10.25;;
20375;SDS011;10347;51.828;6.466;2023-02-11T04:21:17;24.08;;;10.00;;
20375;SDS011;10347;51.828;6.466;2023-02-11T04:23:43;15.90;;;9.00;;
20375;SDS011;10347;51.828;6.466;2023-02-11T04:26:08;17.00;;;8.88;;
20375;SDS011;10347;51.828;6.466;2023-02-11T04:28:34;17.52;;;9.45;;
20375;SDS011;10347;51.828;6.466;2023-02-11T04:31:00;15.45;;;9.00;;
20375;SDS011;10347;51.828;6.466;2023-02-11T04:33:26;18.20;;;9.88;;
20375;SDS011;10347;51.828;6.466;2023-02-11T04:35:51;15.90;;;9.32;;
20375;SDS011;10347;51.828;6.466;2023-02-11T04:38:17;18.67;;;9.88;;
20375;SDS011;10347;51.828;6.466;2023-02-11T04:40:43;19.92;;;10.43;;
20375;SDS011;10347;51.828;6.466;2023-02-11T04:43:08;19.70;;;10.25;;
20375;SDS011;10347;51.828;6.466;2023-02-11T04:45:34;23.33;;;9.05;;
20375;SDS011;10347;51.828;6.466;2023-02-11T04:48:02;18.15;;;9.05;;
20375;SDS011;10347;51.828;6.466;2023-02-11T04:50:28;18.90;;;9.75;;
20375;SDS011;10347;51.828;6.466;2023-02-11T04:52:54;16.20;;;8.43;;
20375;SDS011;10347;51.828;6.466;2023-02-11T04:55:19;17.45;;;9.15;;
20375;SDS011;10347;51.828;6.466;2023-02-11T04:57:45;19.75;;;8.38;;
20375;SDS011;10347;51.828;6.466;2023-02-11T05:00:11;21.55;;;10.13;;
20375;SDS011;10347;51.828;6.466;2023-02-11T05:02:37;23.20;;;9.85;;
20375;SDS011;10347;51.828;6.466;2023-02-11T05:05:02;19.75;;;10.13;;
20375;SDS011;10347;51.828;6.466;2023-02-11T05:07:28;25.25;;;10.75;;
20375;SDS011;10347;51.828;6.466;2023-02-11T05:09:54;17.77;;;8.80;;
20375;SDS011;10347;51.828;6.466;2023-02-11T05:12:19;17.45;;;9.50;;
20375;SDS011;10347;51.828;6.466;2023-02-11T05:14:45;18.45;;;9.48;;
20375;SDS011;10347;51.828;6.466;2023-02-11T05:17:11;24.20;;;10.18;;
20375;SDS011;10347;51.828;6.466;2023-02-11T05:19:37;17.92;;;9.57;;
20375;SDS011;10347;51.828;6.466;2023-02-11T05:22:02;17.20;;;10.15;;
20375;SDS011;10347;51.828;6.466;2023-02-11T05:24:29;14.77;;;8.95;;
20375;SDS011;10347;51.828;6.466;2023-02-11T05:26:56;18.40;;;9.85;;
20375;SDS011;10347;51.828;6.466;2023-02-11T05:29:21;19.55;;;11.15;;
20375;SDS011;10347;51.828;6.466;2023-02-11T05:31:47;23.05;;;10.48;;
20375;SDS011;10347;51.828;6.466;2023-02-11T05:34:12;22.75;;;10.48;;
20375;SDS011;10347;51.828;6.466;2023-02-11T05:36:38;20.42;;;9.45;;
20375;SDS011;10347;51.828;6.466;2023-02-11T05:39:04;16.10;;;9.98;;
20375;SDS011;10347;51.828;6.466;2023-02-11T05:41:29;22.75;;;10.05;;
20375;SDS011;10347;51.828;6.466;2023-02-11T05:43:55;16.45;;;9.05;;
20375;SDS011;10347;51.828;6.466;2023-02-11T05:46:20;11.40;;;8.18;;
20375;SDS011;10347;51.828;6.466;2023-02-11T05:48:46;16.75;;;9.88;;
20375;SDS011;10347;51.828;6.466;2023-02-11T05:51:11;17.23;;;10.05;;
20375;SDS011;10347;51.828;6.466;2023-02-11T05:53:37;18.60;;;10.50;;
20375;SDS011;10347;51.828;6.466;2023-02-11T05:56:02;24.95;;;12.02;;
20375;SDS011;10347;51.828;6.466;2023-02-11T05:58:28;24.35;;;11.88;;
20375;SDS011;10347;51.828;6.466;2023-02-11T06:00:54;23.40;;;11.68;;
20375;SDS011;10347;51.828;6.466;2023-02-11T06:03:19;23.73;;;11.75;;
20375;SDS011;10347;51.828;6.466;2023-02-11T06:05:45;19.20;;;11.15;;
20375;SDS011;10347;51.828;6.466;2023-02-11T06:08:11;24.20;;;12.27;;
20375;SDS011;10347;51.828;6.466;2023-02-11T06:10:36;21.95;;;10.93;;
20375;SDS011;10347;51.828;6.466;2023-02-11T06:13:02;24.05;;;11.18;;
20375;SDS011;10347;51.828;6.466;2023-02-11T06:15:28;18.00;;;10.30;;
20375;SDS011;10347;51.828;6.466;2023-02-11T06:17:53;20.85;;;12.05;;
20375;SDS011;10347;51.828;6.466;2023-02-11T06:20:19;21.65;;;11.07;;
20375;SDS011;10347;51.828;6.466;2023-02-11T06:22:45;20.40;;;10.63;;
20375;SDS011;10347;51.828;6.466;2023-02-11T06:25:11;27.10;;;11.63;;
20375;SDS011;10347;51.828;6.466;2023-02-11T06:27:37;24.02;;;10.98;;
20375;SDS011;10347;51.828;6.466;2023-02-11T06:30:04;17.10;;;9.65;;
20375;SDS011;10347;51.828;6.466;2023-02-11T06:32:30;18.70;;;9.40;;
20375;SDS011;10347;51.828;6.466;2023-02-11T06:34:56;19.92;;;10.48;;
20375;SDS011;10347;51.828;6.466;2023-02-11T06:37:22;19.33;;;11.15;;
20375;SDS011;10347;51.828;6.466;2023-02-11T06:39:47;18.75;;;10.60;;
20375;SDS011;10347;51.828;6.466;2023-02-11T06:42:13;24.20;;;11.32;;
20375;SDS011;10347;51.828;6.466;2023-02-11T06:44:38;15.10;;;9.95;;
20375;SDS011;10347;51.828;6.466;2023-02-11T06:47:04;18.05;;;10.50;;
20375;SDS011;10347;51.828;6.466;2023-02-11T06:49:30;19.08;;;10.73;;
20375;SDS011;10347;51.828;6.466;2023-02-11T06:51:55;22.90;;;12.02;;
20375;SDS011;10347;51.828;6.466;2023-02-11T06:54:21;21.90;;;11.07;;
20375;SDS011;10347;51.828;6.466;2023-02-11T06:56:47;25.08;;;11.80;;
20375;SDS011;10347;51.828;6.466;2023-02-11T06:59:16;19.77;;;11.00;;
20375;SDS011;10347;51.828;6.466;2023-02-11T07:01:44;24.58;;;11.82;;
20375;SDS011;10347;51.828;6.466;2023-02-11T07:04:10;16.67;;;10.38;;
20375;SDS011;10347;51.828;6.466;2023-02-11T07:06:36;20.75;;;11.13;;
20375;SDS011;10347;51.828;6.466;2023-02-11T07:09:02;23.73;;;11.80;;
20375;SDS011;10347;51.828;6.466;2023-02-11T07:11:29;22.13;;;11.20;;
20375;SDS011;10347;51.828;6.466;2023-02-11T07:13:55;21.77;;;11.57;;
20375;SDS011;10347;51.828;6.466;2023-02-11T07:16:24;27.98;;;13.40;;
20375;SDS011;10347;51.828;6.466;2023-02-11T07:18:50;29.48;;;13.13;;
20375;SDS011;10347;51.828;6.466;2023-02-11T07:21:16;21.10;;;11.95;;
20375;SDS011;10347;51.828;6.466;2023-02-11T07:23:44;21.80;;;12.75;;
20375;SDS011;10347;51.828;6.466;2023-02-11T07:26:11;23.25;;;13.10;;
20375;SDS011;10347;51.828;6.466;2023-02-11T07:28:39;28.85;;;13.73;;
20375;SDS011;10347;51.828;6.466;2023-02-11T07:31:06;23.73;;;12.35;;
20375;SDS011;10347;51.828;6.466;2023-02-11T07:33:33;29.35;;;15.00;;
20375;SDS011;10347;51.828;6.466;2023-02-11T07:35:59;25.00;;;13.40;;
20375;SDS011;10347;51.828;6.466;2023-02-11T07:38:25;23.60;;;12.20;;
20375;SDS011;10347;51.828;6.466;2023-02-11T07:40:51;25.35;;;13.27;;
20375;SDS011;10347;51.828;6.466;2023-02-11T07:43:16;26.55;;;12.75;;
20375;SDS011;10347;51.828;6.466;2023-02-11T07:45:42;24.55;;;13.63;;
20375;SDS011;10347;51.828;6.466;2023-02-11T07:48:07;27.20;;;13.13;;
20375;SDS011;10347;51.828;6.466;2023-02-11T07:50:33;24.85;;;13.02;;
20375;SDS011;10347;51.828;6.466;2023-02-11T07:52:58;26.13;;;13.32;;
20375;SDS011;10347;51.828;6.466;2023-02-11T07:55:24;25.33;;;13.55;;
20375;SDS011;10347;51.828;6.466;2023-02-11T07:57:49;24.25;;;13.10;;
20375;SDS011;10347;51.828;6.466;2023-02-11T08:00:15;29.98;;;14.65;;
20375;SDS011;10347;51.828;6.466;2023-02-11T08:02:41;28.02;;;13.02;;
20375;SDS011;10347;51.828;6.466;2023-02-11T08:05:07;23.55;;;13.38;;
20375;SDS011;10347;51.828;6.466;2023-02-11T08:07:32;28.80;;;12.77;;
20375;SDS011;10347;51.828;6.466;2023-02-11T08:09:58;23.48;;;13.07;;
20375;SDS011;10347;51.828;6.466;2023-02-11T08:12:24;20.77;;;12.20;;
20375;SDS011;10347;51.828;6.466;2023-02-11T08:14:49;23.95;;;11.85;;
20375;SDS011;10347;51.828;6.466;2023-02-11T08:17:15;26.75;;;13.32;;
20375;SDS011;10347;51.828;6.466;2023-02-11T08:19:41;26.60;;;14.50;;
20375;SDS011;10347;51.828;6.466;2023-02-11T08:22:06;27.60;;;14.13;;
20375;SDS011;10347;51.828;6.466;2023-02-11T08:24:32;27.30;;;15.13;;
20375;SDS011;10347;51.828;6.466;2023-02-11T08:26:58;28.95;;;15.88;;
20375;SDS011;10347;51.828;6.466;2023-02-11T08:29:23;35.38;;;15.98;;
20375;SDS011;10347;51.828;6.466;2023-02-11T08:31:49;32.70;;;16.33;;
20375;SDS011;10347;51.828;6.466;2023-02-11T08:34:14;26.98;;;16.05;;
20375;SDS011;10347;51.828;6.466;2023-02-11T08:36:43;28.38;;;15.80;;
20375;SDS011;10347;51.828;6.466;2023-02-11T08:39:19;27.20;;;14.50;;
20375;SDS011;10347;51.828;6.466;2023-02-11T08:41:47;30.02;;;16.02;;
20375;SDS011;10347;51.828;6.466;2023-02-11T08:44:19;35.13;;;16.10;;
20375;SDS011;10347;51.828;6.466;2023-02-11T08:46:45;25.85;;;14.27;;
20375;SDS011;10347;51.828;6.466;2023-02-11T08:49:11;27.38;;;15.73;;
20375;SDS011;10347;51.828;6.466;2023-02-11T08:51:37;37.58;;;17.33;;
20375;SDS011;10347;51.828;6.466;2023-02-11T08:54:02;29.23;;;16.30;;
20375;SDS011;10347;51.828;6.466;2023-02-11T08:56:28;30.35;;;15.90;;
20375;SDS011;10347;51.828;6.466;2023-02-11T08:58:55;30.40;;;16.52;;
20375;SDS011;10347;51.828;6.466;2023-02-11T09:01:22;31.05;;;16.08;;
20375;SDS011;10347;51.828;6.466;2023-02-11T09:03:49;37.47;;;20.17;;
20375;SDS011;10347;51.828;6.466;2023-02-11T09:06:15;32.50;;;18.13;;
20375;SDS011;10347;51.828;6.466;2023-02-11T09:08:43;30.75;;;16.73;;
20375;SDS011;10347;51.828;6.466;2023-02-11T09:11:10;37.58;;;18.27;;
20375;SDS011;10347;51.828;6.466;2023-02-11T09:13:39;42.45;;;21.90;;
20375;SDS011;10347;51.828;6.466;2023-02-11T09:16:06;45.05;;;21.40;;
20375;SDS011;10347;51.828;6.466;2023-02-11T09:18:32;32.15;;;18.13;;
20375;SDS011;10347;51.828;6.466;2023-02-11T09:21:07;32.90;;;17.55;;
20375;SDS011;10347;51.828;6.466;2023-02-11T09:23:34;43.80;;;20.95;;
20375;SDS011;10347;51.828;6.466;2023-02-11T09:26:07;38.08;;;20.52;;
20375;SDS011;10347;51.828;6.466;2023-02-11T09:28:43;42.40;;;21.05;;
20375;SDS011;10347;51.828;6.466;2023-02-11T09:31:09;38.58;;;20.15;;
20375;SDS011;10347;51.828;6.466;2023-02-11T09:33:38;42.30;;;21.50;;
20375;SDS011;10347;51.828;6.466;2023-02-11T09:36:06;44.88;;;23.25;;
20375;SDS011;10347;51.828;6.466;2023-02-11T09:38:32;37.38;;;21.42;;
20375;SDS011;10347;51.828;6.466;2023-02-11T09:40:58;46.55;;;24.23;;
20375;SDS011;10347;51.828;6.466;2023-02-11T09:43:30;47.15;;;23.85;;
20375;SDS011;10347;51.828;6.466;2023-02-11T09:46:00;43.78;;;23.67;;
20375;SDS011;10347;51.828;6.466;2023-02-11T09:48:26;43.40;;;22.83;;
20375;SDS011;10347;51.828;6.466;2023-02-11T09:51:00;39.42;;;21.65;;
20375;SDS011;10347;51.828;6.466;2023-02-11T09:53:28;35.05;;;19.45;;
20375;SDS011;10347;51.828;6.466;2023-02-11T09:56:02;43.45;;;21.40;;
20375;SDS011;10347;51.828;6.466;2023-02-11T09:58:38;42.53;;;22.75;;
20375;SDS011;10347;51.828;6.466;2023-02-11T10:01:29;40.95;;;21.83;;
20375;SDS011;10347;51.828;6.466;2023-02-11T10:06:37;37.97;;;21.05;;
20375;SDS011;10347;51.828;6.466;2023-02-11T10:20:22;39.67;;;21.17;;
20375;SDS011;10347;51.828;6.466;2023-02-11T10:23:14;37.42;;;19.95;;
20375;SDS011;10347;51.828;6.466;2023-02-11T10:25:46;47.33;;;25.45;;
20375;SDS011;10347;51.828;6.466;2023-02-11T10:28:39;41.13;;;22.13;;
20375;SDS011;10347;51.828;6.466;2023-02-11T10:31:21;41.67;;;22.50;;
20375;SDS011;10347;51.828;6.466;2023-02-11T10:33:57;36.72;;;19.75;;
20375;SDS011;10347;51.828;6.466;2023-02-11T10:36:27;36.72;;;19.27;;
20375;SDS011;10347;51.828;6.466;2023-02-11T10:39:00;35.42;;;19.58;;
20375;SDS011;10347;51.828;6.466;2023-02-11T10:41:36;40.30;;;21.38;;
20375;SDS011;10347;51.828;6.466;2023-02-11T10:44:05;36.10;;;20.02;;
20375;SDS011;10347;51.828;6.466;2023-02-11T10:46:32;33.80;;;19.27;;
20375;SDS011;10347;51.828;6.466;2023-02-11T10:49:01;41.45;;;21.80;;
20375;SDS011;10347;51.828;6.466;2023-02-11T10:51:29;36.15;;;20.42;;
20375;SDS011;10347;51.828;6.466;2023-02-11T10:56:36;34.80;;;18.83;;
20375;SDS011;10347;51.828;6.466;2023-02-11T10:59:04;36.15;;;19.58;;
20375;SDS011;10347;51.828;6.466;2023-02-11T11:02:04;33.25;;;18.85;;
20375;SDS011;10347;51.828;6.466;2023-02-11T11:04:46;41.75;;;22.35;;
20375;SDS011;10347;51.828;6.466;2023-02-11T11:07:17;35.65;;;22.10;;
20375;SDS011;10347;51.828;6.466;2023-02-11T11:09:48;45.13;;;24.40;;
20375;SDS011;10347;51.828;6.466;2023-02-11T11:12:24;41.20;;;23.55;;
20375;SDS011;10347;51.828;6.466;2023-02-11T11:15:13;40.67;;;23.75;;
20375;SDS011;10347;51.828;6.466;2023-02-11T11:17:42;43.80;;;24.23;;
20375;SDS011;10347;51.828;6.466;2023-02-11T11:20:13;48.45;;;23.73;;
20375;SDS011;10347;51.828;6.466;2023-02-11T11:22:45;45.15;;;22.42;;
20375;SDS011;10347;51.828;6.466;2023-02-11T11:25:21;46.25;;;23.70;;
20375;SDS011;10347;51.828;6.466;2023-02-11T11:27:48;45.33;;;24.30;;
20375;SDS011;10347;51.828;6.466;2023-02-11T11:30:15;39.30;;;22.60;;
20375;SDS011;10347;51.828;6.466;2023-02-11T11:32:42;37.70;;;22.00;;
20375;SDS011;10347;51.828;6.466;2023-02-11T11:35:19;37.47;;;22.70;;
20375;SDS011;10347;51.828;6.466;2023-02-11T11:37:54;41.78;;;23.70;;
20375;SDS011;10347;51.828;6.466;2023-02-11T11:40:26;40.28;;;21.80;;
20375;SDS011;10347;51.828;6.466;2023-02-11T11:43:12;40.88;;;22.50;;
20375;SDS011;10347;51.828;6.466;2023-02-11T11:45:52;37.85;;;20.90;;
20375;SDS011;10347;51.828;6.466;2023-02-11T11:48:21;41.42;;;23.40;;
20375;SDS011;10347;51.828;6.466;2023-02-11T11:51:01;41.35;;;22.77;;
20375;SDS011;10347;51.828;6.466;2023-02-11T11:53:32;38.30;;;21.63;;
20375;SDS011;10347;51.828;6.466;2023-02-11T11:56:05;39.53;;;21.77;;
20375;SDS011;10347;51.828;6.466;2023-02-11T11:58:45;38.92;;;21.33;;
20375;SDS011;10347;51.828;6.466;2023-02-11T12:01:25;34.95;;;20.83;;
20375;SDS011;10347;51.828;6.466;2023-02-11T12:04:09;38.63;;;21.13;;
20375;SDS011;10347;51.828;6.466;2023-02-11T12:10:00;31.20;;;19.58;;
20375;SDS011;10347;51.828;6.466;2023-02-11T12:18:37;32.08;;;19.77;;
20375;SDS011;10347;51.828;6.466;2023-02-11T12:27:01;38.00;;;20.83;;
20375;SDS011;10347;51.828;6.466;2023-02-11T12:32:36;32.58;;;19.77;;
20375;SDS011;10347;51.828;6.466;2023-02-11T12:40:44;37.53;;;20.65;;
20375;SDS011;10347;51.828;6.466;2023-02-11T12:43:23;31.80;;;18.48;;
20375;SDS011;10347;51.828;6.466;2023-02-11T12:59:42;40.28;;;22.15;;
20375;SDS011;10347;51.828;6.466;2023-02-11T13:07:35;32.15;;;21.15;;
20375;SDS011;10347;51.828;6.466;2023-02-11T13:10:14;30.70;;;19.10;;
20375;SDS011;10347;51.828;6.466;2023-02-11T13:12:48;26.60;;;16.83;;
20375;SDS011;10347;51.828;6.466;2023-02-11T13:15:34;25.83;;;16.00;;
20375;SDS011;10347;51.828;6.466;2023-02-11T13:18:09;24.23;;;15.70;;
20375;SDS011;10347;51.828;6.466;2023-02-11T13:20:54;26.52;;;16.00;;
20375;SDS011;10347;51.828;6.466;2023-02-11T13:29:18;22.77;;;15.30;;
20375;SDS011;10347;51.828;6.466;2023-02-11T13:32:05;25.33;;;15.20;;
20375;SDS011;10347;51.828;6.466;2023-02-11T13:37:11;22.08;;;13.93;;
20375;SDS011;10347;51.828;6.466;2023-02-11T13:42:30;25.63;;;14.30;;
20375;SDS011;10347;51.828;6.466;2023-02-11T13:44:57;24.17;;;14.82;;
20375;SDS011;10347;51.828;6.466;2023-02-11T13:47:28;24.45;;;15.30;;
20375;SDS011;10347;51.828;6.466;2023-02-11T13:49:56;26.95;;;14.65;;
20375;SDS011;10347;51.828;6.466;2023-02-11T13:52:25;24.30;;;13.75;;
20375;SDS011;10347;51.828;6.466;2023-02-11T13:54:51;23.92;;;14.27;;
20375;SDS011;10347;51.828;6.466;2023-02-11T13:59:51;25.15;;;14.02;;
20375;SDS011;10347;51.828;6.466;2023-02-11T14:05:22;27.10;;;14.00;;
20375;SDS011;10347;51.828;6.466;2023-02-11T14:08:15;19.00;;;12.85;;
20375;SDS011;10347;51.828;6.466;2023-02-11T14:11:05;22.08;;;12.68;;
20375;SDS011;10347;51.828;6.466;2023-02-11T14:14:19;18.50;;;13.00;;
20375;SDS011;10347;51.828;6.466;2023-02-11T14:16:26;26.40;;;14.45;;
20375;SDS011;10347;51.828;6.466;2023-02-11T14:24:38;22.55;;;13.85;;
20375;SDS011;10347;51.828;6.466;2023-02-11T14:37:41;17.70;;;11.05;;
20375;SDS011;10347;51.828;6.466;2023-02-11T14:40:33;20.73;;;12.15;;
20375;SDS011;10347;51.828;6.466;2023-02-11T14:43:15;16.83;;;11.63;;
20375;SDS011;10347;51.828;6.466;2023-02-11T14:45:44;17.83;;;11.65;;
20375;SDS011;10347;51.828;6.466;2023-02-11T14:48:19;22.30;;;12.55;;
20375;SDS011;10347;51.828;6.466;2023-02-11T14:50:50;16.25;;;11.15;;
20375;SDS011;10347;51.828;6.466;2023-02-11T14:53:19;16.05;;;10.30;;
20375;SDS011;10347;51.828;6.466;2023-02-11T14:55:48;19.08;;;10.55;;
20375;SDS011;10347;51.828;6.466;2023-02-11T15:01:02;14.48;;;9.95;;
20375;SDS011;10347;51.828;6.466;2023-02-11T15:06:15;15.05;;;9.98;;
20375;SDS011;10347;51.828;6.466;2023-02-11T15:08:44;15.80;;;10.43;;
20375;SDS011;10347;51.828;6.466;2023-02-11T15:11:20;16.65;;;10.38;;
20375;SDS011;10347;51.828;6.466;2023-02-11T15:13:48;15.43;;;10.07;;
20375;SDS011;10347;51.828;6.466;2023-02-11T15:16:18;22.10;;;13.52;;
20375;SDS011;10347;51.828;6.466;2023-02-11T15:18:48;28.88;;;16.70;;
20375;SDS011;10347;51.828;6.466;2023-02-11T15:21:27;24.90;;;15.70;;
20375;SDS011;10347;51.828;6.466;2023-02-11T15:23:55;22.60;;;15.18;;
20375;SDS011;10347;51.828;6.466;2023-02-11T15:26:25;28.65;;;17.42;;
20375;SDS011;10347;51.828;6.466;2023-02-11T15:28:51;22.77;;;14.45;;
20375;SDS011;10347;51.828;6.466;2023-02-11T15:31:18;20.77;;;12.43;;
20375;SDS011;10347;51.828;6.466;2023-02-11T15:33:47;20.10;;;13.45;;
20375;SDS011;10347;51.828;6.466;2023-02-11T15:36:13;15.63;;;11.70;;
20375;SDS011;10347;51.828;6.466;2023-02-11T15:38:39;21.27;;;13.18;;
20375;SDS011;10347;51.828;6.466;2023-02-11T15:41:05;18.38;;;12.48;;
20375;SDS011;10347;51.828;6.466;2023-02-11T15:43:48;20.42;;;12.55;;
20375;SDS011;10347;51.828;6.466;2023-02-11T15:46:18;20.23;;;12.98;;
20375;SDS011;10347;51.828;6.466;2023-02-11T15:48:52;16.90;;;10.93;;
20375;SDS011;10347;51.828;6.466;2023-02-11T15:51:20;21.70;;;10.98;;
20375;SDS011;10347;51.828;6.466;2023-02-11T15:53:59;17.25;;;10.48;;
20375;SDS011;10347;51.828;6.466;2023-02-11T15:59:13;16.70;;;11.23;;
20375;SDS011;10347;51.828;6.466;2023-02-11T16:01:49;15.48;;;10.63;;
20375;SDS011;10347;51.828;6.466;2023-02-11T16:04:16;21.13;;;11.05;;
20375;SDS011;10347;51.828;6.466;2023-02-11T16:06:44;14.48;;;9.90;;
20375;SDS011;10347;51.828;6.466;2023-02-11T16:14:19;15.77;;;10.45;;
20375;SDS011;10347;51.828;6.466;2023-02-11T16:16:48;15.23;;;10.20;;
20375;SDS011;10347;51.828;6.466;2023-02-11T16:19:17;15.10;;;9.82;;
20375;SDS011;10347;51.828;6.466;2023-02-11T16:21:44;12.73;;;8.90;;
20375;SDS011;10347;51.828;6.466;2023-02-11T16:26:55;18.23;;;11.43;;
20375;SDS011;10347;51.828;6.466;2023-02-11T16:29:24;15.00;;;9.98;;
20375;SDS011;10347;51.828;6.466;2023-02-11T16:31:52;11.65;;;9.52;;
20375;SDS011;10347;51.828;6.466;2023-02-11T16:34:28;15.70;;;10.30;;
20375;SDS011;10347;51.828;6.466;2023-02-11T16:36:54;18.10;;;10.95;;
20375;SDS011;10347;51.828;6.466;2023-02-11T16:39:20;14.15;;;9.82;;
20375;SDS011;10347;51.828;6.466;2023-02-11T16:41:46;13.45;;;9.60;;
20375;SDS011;10347;51.828;6.466;2023-02-11T16:44:14;10.95;;;8.23;;
20375;SDS011;10347;51.828;6.466;2023-02-11T16:46:43;14.60;;;9.43;;
20375;SDS011;10347;51.828;6.466;2023-02-11T16:49:10;12.20;;;8.18;;
20375;SDS011;10347;51.828;6.466;2023-02-11T16:51:47;12.20;;;8.35;;